createdAt,value
2022-12-04T00:23:09.028Z,23.95
2022-12-04T02:18:13.069Z,24.27
2022-12-04T02:20:51.732Z,24.50
2022-12-04T02:23:42.875Z,25.25
2022-12-04T02:26:42.888Z,24.15
2022-12-04T02:29:58.505Z,22.00
2022-12-04T02:32:46.936Z,24.27
2022-12-04T02:35:27.692Z,25.02
2022-12-04T02:38:05.038Z,21.70
2022-12-04T02:41:06.573Z,23.10
2022-12-04T02:47:30.827Z,23.88
2022-12-04T02:50:05.909Z,22.70
2022-12-04T02:52:39.966Z,23.38
2022-12-04T03:07:09.991Z,22.83
2022-12-04T03:09:47.912Z,23.50
2022-12-04T03:30:35.960Z,22.50
2022-12-04T03:33:29.904Z,22.33
2022-12-04T04:23:35.335Z,18.98
2022-12-04T05:20:41.021Z,22.17
2022-12-04T05:23:30.424Z,21.08
2022-12-04T05:32:10.494Z,22.10
2022-12-04T05:54:44.369Z,26.27
2022-12-04T06:06:19.473Z,22.10
2022-12-04T06:14:22.220Z,25.20
2022-12-04T06:16:49.185Z,26.20
2022-12-04T06:19:18.664Z,29.23
2022-12-04T06:21:47.928Z,25.38
2022-12-04T06:24:29.605Z,26.13
2022-12-04T07:29:38.506Z,33.85
2022-12-04T07:32:28.137Z,27.77
2022-12-04T07:41:03.417Z,26.05
2022-12-04T07:43:41.550Z,24.95
2022-12-04T07:46:14.384Z,26.33
2022-12-04T07:48:48.917Z,25.45
2022-12-04T07:51:26.030Z,23.23
2022-12-04T09:36:24.527Z,24.15
2022-12-04T09:39:07.029Z,23.90
2022-12-04T09:41:36.954Z,23.58
2022-12-04T09:44:44.426Z,27.85
2022-12-04T09:48:03.706Z,23.60
2022-12-04T09:50:53.993Z,23.30
2022-12-04T09:54:04.845Z,19.45
2022-12-04T09:57:06.694Z,23.40
2022-12-04T09:59:33.672Z,22.38
2022-12-04T10:02:16.185Z,24.42
2022-12-04T10:26:16.559Z,21.20
2022-12-04T10:28:55.387Z,17.10
2022-12-04T10:31:25.126Z,15.88
2022-12-04T10:34:07.917Z,16.15
2022-12-04T10:36:36.161Z,15.00
2022-12-04T10:39:10.475Z,13.32
2022-12-04T10:42:04.234Z,13.85
2022-12-04T10:44:31.551Z,12.52
2022-12-04T10:47:04.300Z,13.63
2022-12-04T10:49:35.648Z,12.48
2022-12-04T10:52:03.453Z,12.50
2022-12-04T10:54:48.721Z,12.20
2022-12-04T10:57:18.866Z,13.05
2022-12-04T10:59:55.579Z,13.32
2022-12-04T11:02:38.291Z,14.85
2022-12-04T11:05:41.649Z,12.88
2022-12-04T11:08:21.502Z,15.10
2022-12-04T11:10:59.280Z,14.80
2022-12-04T11:13:26.806Z,13.00
2022-12-04T11:15:58.343Z,14.88
2022-12-04T11:18:32.315Z,15.65
2022-12-04T11:21:07.927Z,14.05
2022-12-04T11:23:42.451Z,13.48
2022-12-04T11:26:10.783Z,13.57
2022-12-04T11:28:42.090Z,14.35
2022-12-04T11:31:15.966Z,13.30
2022-12-04T11:33:57.035Z,13.98
2022-12-04T11:36:28.618Z,12.95
2022-12-04T11:39:07.751Z,12.15
2022-12-04T11:41:35.021Z,13.70
2022-12-04T11:44:01.957Z,12.18
2022-12-04T11:46:31.419Z,12.82
2022-12-04T11:48:58.953Z,11.48
2022-12-04T11:51:57.450Z,12.13
2022-12-04T11:55:02.489Z,4.35
2022-12-04T11:57:41.777Z,3.65
2022-12-04T12:00:16.208Z,3.47
2022-12-04T12:02:55.154Z,3.75
2022-12-04T12:05:48.386Z,3.60
2022-12-04T12:08:24.673Z,3.67
2022-12-04T12:11:15.496Z,3.42
2022-12-04T12:14:00.980Z,3.53
2022-12-04T12:16:58.974Z,4.10
2022-12-04T12:20:00.750Z,3.10
2022-12-04T12:23:01.545Z,2.97
2022-12-04T12:25:53.077Z,3.60
2022-12-04T12:28:55.096Z,3.95
2022-12-04T12:32:18.151Z,3.40
2022-12-04T12:34:46.592Z,3.70
2022-12-04T12:38:02.627Z,3.92
2022-12-04T12:40:32.529Z,4.53
2022-12-04T12:43:16.939Z,4.03
2022-12-04T12:46:23.640Z,4.63
2022-12-04T12:49:08.323Z,3.65
2022-12-04T12:51:44.714Z,3.47
2022-12-04T12:54:41.377Z,3.80
2022-12-04T12:57:36.344Z,4.85
2022-12-04T13:00:23.566Z,5.43
2022-12-04T13:03:29.271Z,4.93
2022-12-04T13:06:04.179Z,5.65
2022-12-04T13:09:15.382Z,5.45
2022-12-04T13:11:45.860Z,5.28
2022-12-04T13:14:17.045Z,4.82
2022-12-04T13:16:54.956Z,5.15
2022-12-04T13:19:22.609Z,4.47
2022-12-04T13:22:33.001Z,4.75
2022-12-04T13:25:10.891Z,4.28
2022-12-04T13:27:53.342Z,5.13
2022-12-04T13:30:25.203Z,5.22
2022-12-04T13:33:10.663Z,4.57
2022-12-04T13:36:02.264Z,4.82
2022-12-04T13:38:44.333Z,5.15
2022-12-04T13:41:29.218Z,5.53
2022-12-04T13:44:00.623Z,5.18
2022-12-04T13:46:41.211Z,4.72
2022-12-04T13:49:28.520Z,5.07
2022-12-04T13:51:58.130Z,5.47
2022-12-04T13:54:35.009Z,5.15
2022-12-04T13:57:17.549Z,5.10
2022-12-04T13:59:45.416Z,5.13
2022-12-04T14:02:41.218Z,4.93
2022-12-04T14:05:21.750Z,4.35
2022-12-04T14:08:08.239Z,4.68
2022-12-04T14:10:39.255Z,4.82
2022-12-04T14:13:18.536Z,5.28
2022-12-04T14:15:48.804Z,4.35
2022-12-04T14:18:29.863Z,4.25
2022-12-04T14:21:05.679Z,5.90
2022-12-04T14:23:43.352Z,4.30
2022-12-04T14:27:03.582Z,5.00
2022-12-04T14:29:57.312Z,5.20
2022-12-04T14:32:28.215Z,7.32
2022-12-04T14:34:56.547Z,7.85
2022-12-04T14:37:56.107Z,5.82
2022-12-04T14:40:47.147Z,5.43
2022-12-04T14:43:23.673Z,6.07
2022-12-04T16:07:55.995Z,6.10
2022-12-04T16:10:29.878Z,6.10
2022-12-04T16:13:26.413Z,6.60
2022-12-04T16:15:53.463Z,6.00
2022-12-04T16:18:32.709Z,5.13
2022-12-04T16:20:59.755Z,6.20
2022-12-04T16:23:27.264Z,5.72
2022-12-04T16:25:57.027Z,6.85
2022-12-04T16:28:24.125Z,7.30
2022-12-04T16:30:54.840Z,7.85
2022-12-04T16:33:23.404Z,7.95
2022-12-04T16:35:50.807Z,8.68
2022-12-04T16:38:18.036Z,7.25
2022-12-04T16:40:46.501Z,6.85
2022-12-04T16:43:15.759Z,8.52
2022-12-04T16:45:58.241Z,6.82
2022-12-04T16:48:25.088Z,7.05
2022-12-04T16:50:52.349Z,7.60
2022-12-04T16:53:22.573Z,6.80
2022-12-04T16:55:50.970Z,5.60
2022-12-04T16:58:19.270Z,5.80
2022-12-04T17:00:55.379Z,4.82
2022-12-04T17:03:29.515Z,5.45
2022-12-04T17:05:57.512Z,4.75
2022-12-04T17:08:38.489Z,5.50
2022-12-04T17:11:08.255Z,4.95
2022-12-04T17:13:35.153Z,5.15
2022-12-04T17:16:19.931Z,6.05
2022-12-04T17:19:12.434Z,7.95
2022-12-04T17:21:47.379Z,10.02
2022-12-04T17:24:23.323Z,9.52
2022-12-04T17:26:50.839Z,7.55
2022-12-04T17:29:20.153Z,6.72
2022-12-04T17:31:47.078Z,6.78
2022-12-04T17:34:15.315Z,7.50
2022-12-04T17:36:42.159Z,6.68
2022-12-04T17:39:11.778Z,6.20
2022-12-04T17:41:38.749Z,7.28
2022-12-04T17:44:05.971Z,9.20
2022-12-04T17:46:33.022Z,8.07
2022-12-04T17:49:05.341Z,6.43
2022-12-04T17:51:35.204Z,7.10
2022-12-04T17:54:02.403Z,7.35
2022-12-04T17:56:29.275Z,6.50
2022-12-04T17:58:58.994Z,7.07
2022-12-04T18:01:28.257Z,7.25
2022-12-04T18:04:06.267Z,7.82
2022-12-04T18:08:10.012Z,8.55
2022-12-04T18:12:50.017Z,7.68
2022-12-04T18:15:17.092Z,7.15
2022-12-04T18:17:47.783Z,5.95
2022-12-04T18:20:19.000Z,8.43
2022-12-04T18:22:48.281Z,7.10
2022-12-04T18:25:23.953Z,6.63
2022-12-04T18:27:51.223Z,5.22
2022-12-04T18:30:18.924Z,5.45
2022-12-04T18:32:47.488Z,5.85
2022-12-04T18:35:14.698Z,5.38
2022-12-04T18:37:41.774Z,6.40
2022-12-04T18:40:09.391Z,6.40
2022-12-04T18:42:36.624Z,5.88
2022-12-04T18:45:07.075Z,6.32
2022-12-04T18:47:36.746Z,7.07
2022-12-04T18:50:07.008Z,5.93
2022-12-04T18:52:37.036Z,7.32
2022-12-04T18:55:27.372Z,7.82
2022-12-04T18:57:54.355Z,12.65
2022-12-04T19:00:24.616Z,15.57
2022-12-04T19:47:54.628Z,10.77
2022-12-04T19:50:21.856Z,13.68
2022-12-04T19:52:49.100Z,10.63
2022-12-04T19:55:16.254Z,9.32
2022-12-04T19:57:43.241Z,7.40
2022-12-04T20:00:10.690Z,7.20
2022-12-04T20:02:38.416Z,7.15
2022-12-04T20:05:14.709Z,6.82
2022-12-04T20:10:42.663Z,6.75
2022-12-04T20:13:15.064Z,6.50
2022-12-04T20:21:27.164Z,8.35
2022-12-04T20:23:55.049Z,8.70
2022-12-04T20:26:29.423Z,7.28
2022-12-04T20:28:58.429Z,6.45
2022-12-04T20:31:28.770Z,7.20
2022-12-04T20:34:03.148Z,7.03
2022-12-04T20:36:32.550Z,7.65
2022-12-04T20:38:59.952Z,9.68
2022-12-04T20:41:29.138Z,8.23
2022-12-04T20:43:59.617Z,9.63
2022-12-04T20:46:32.702Z,7.00
2022-12-04T20:49:01.283Z,8.35
2022-12-04T20:51:37.553Z,8.70
2022-12-04T20:54:16.142Z,8.93
2022-12-04T20:59:49.135Z,8.15
2022-12-04T21:02:16.463Z,12.02
2022-12-04T21:08:20.652Z,10.23
2022-12-04T21:10:48.511Z,9.23
2022-12-04T21:13:41.555Z,7.47
2022-12-04T21:16:09.472Z,7.15
2022-12-04T21:18:37.287Z,7.15
2022-12-04T21:21:14.351Z,8.27
2022-12-04T21:23:47.412Z,6.80
2022-12-04T21:26:41.615Z,6.78
2022-12-04T21:51:55.809Z,5.65
2022-12-04T21:54:59.453Z,4.60
2022-12-04T22:22:10.090Z,7.95
2022-12-04T22:38:25.266Z,8.80
2022-12-04T22:40:52.242Z,8.32
2022-12-04T22:46:24.400Z,9.07
2022-12-04T22:48:52.567Z,10.27
2022-12-04T22:51:22.751Z,13.80
2022-12-04T22:53:55.102Z,10.77
2022-12-04T22:56:32.158Z,7.35
2022-12-04T22:59:03.059Z,5.93
2022-12-04T23:01:32.658Z,5.82
2022-12-04T23:04:01.096Z,7.35
2022-12-04T23:06:32.274Z,6.47
2022-12-04T23:09:12.517Z,6.18
2022-12-04T23:11:39.919Z,6.63
2022-12-04T23:14:09.194Z,6.32
2022-12-04T23:16:37.933Z,6.25
2022-12-04T23:19:09.053Z,6.05
2022-12-04T23:21:36.182Z,6.75
2022-12-04T23:24:03.485Z,6.03
2022-12-04T23:26:46.953Z,6.05
2022-12-04T23:29:50.959Z,5.45
2022-12-04T23:32:36.627Z,5.60
2022-12-04T23:35:05.082Z,5.45
2022-12-04T23:37:48.301Z,5.68
2022-12-04T23:44:41.006Z,5.13
2022-12-04T23:47:14.251Z,4.70
2022-12-04T23:49:41.311Z,5.28
2022-12-04T23:52:08.259Z,5.22
2022-12-04T23:54:37.716Z,5.20
2022-12-04T23:57:16.605Z,4.82
2022-12-04T23:59:43.714Z,5.35
